Time;durP1;ratioP1;P1;durP2;ratioP2;P2;SDS_P1;SDS_P2;PMS_P1;PMS_P2;Temp;Humidity;BMP_temperature;BMP_pressure;BME280_temperature;BME280_humidity;BME280_pressure;Samples;Min_cycle;Max_cycle;Signal;HPM_P1;HPM_P2
2022/08/15 00:00:20;;;;;;;7.88;5.43;;;27.40;49.20;;;;;;5036795;28;20414;-71
2022/08/15 00:02:48;;;;;;;9.05;5.30;;;27.40;49.30;;;;;;5034952;28;20346;-71
2022/08/15 00:05:19;;;;;;;7.00;5.03;;;27.40;49.50;;;;;;5021762;28;20050;-71
2022/08/15 00:07:46;;;;;;;7.68;5.05;;;27.40;49.60;;;;;;5030229;28;20045;-71
2022/08/15 00:10:12;;;;;;;8.10;5.13;;;27.30;49.60;;;;;;5024105;28;20040;-71
2022/08/15 00:12:39;;;;;;;7.70;5.05;;;27.30;49.70;;;;;;5030783;28;20041;-71
2022/08/15 00:15:12;;;;;;;8.63;5.50;;;27.30;49.80;;;;;;5032841;28;20036;-71
2022/08/15 00:17:40;;;;;;;7.05;4.40;;;27.20;49.90;;;;;;5020929;28;20026;-71
2022/08/15 00:20:08;;;;;;;9.07;5.43;;;27.20;49.90;;;;;;5033961;28;20098;-71
2022/08/15 00:22:34;;;;;;;7.57;5.22;;;27.20;50.00;;;;;;5030540;28;20033;-71
2022/08/15 00:25:00;;;;;;;9.32;5.00;;;27.20;50.10;;;;;;5034201;28;20060;-71
2022/08/15 00:27:26;;;;;;;8.95;5.38;;;27.10;50.20;;;;;;5024439;28;20030;-71
2022/08/15 00:29:55;;;;;;;9.40;5.45;;;27.10;50.20;;;;;;5018882;28;20026;-71
2022/08/15 00:32:26;;;;;;;;;;;27.10;50.20;;;;;;5036976;28;20026;-71
2022/08/15 00:34:51;;;;;;;8.00;4.43;;;27.10;50.10;;;;;;5035495;28;19909;-71
2022/08/15 00:37:18;;;;;;;7.47;5.05;;;27.00;49.90;;;;;;5016842;28;20113;-71
2022/08/15 00:39:45;;;;;;;9.43;5.68;;;27.10;50.00;;;;;;5035349;28;20454;-71
2022/08/15 00:42:11;;;;;;;7.43;5.32;;;27.00;49.90;;;;;;5035306;28;20030;-71
2022/08/15 00:44:44;;;;;;;8.02;5.10;;;27.10;50.10;;;;;;5022677;28;20045;-71
2022/08/15 00:47:18;;;;;;;8.48;4.90;;;27.10;50.20;;;;;;5015276;28;20072;-71
2022/08/15 00:49:46;;;;;;;7.30;5.38;;;27.00;50.20;;;;;;5025784;28;20037;-71
2022/08/15 00:52:20;;;;;;;7.28;4.93;;;27.00;50.20;;;;;;5002353;28;20112;-71
2022/08/15 00:54:57;;;;;;;7.88;5.25;;;27.00;50.30;;;;;;5012177;28;20030;-71
2022/08/15 00:57:36;;;;;;;8.23;5.47;;;27.00;50.40;;;;;;5029124;28;20122;-71
2022/08/15 01:00:13;;;;;;;8.40;5.43;;;27.00;50.40;;;;;;5035007;28;20030;-71
2022/08/15 01:02:39;;;;;;;7.97;5.45;;;27.00;50.20;;;;;;5035828;28;20033;-72
2022/08/15 01:05:11;;;;;;;8.15;5.07;;;27.00;50.20;;;;;;5002525;28;20507;-71
2022/08/15 01:07:38;;;;;;;7.97;5.05;;;27.00;50.30;;;;;;5027967;28;20029;-71
2022/08/15 01:10:06;;;;;;;7.85;5.32;;;27.00;50.30;;;;;;5020327;28;20037;-71
2022/08/15 01:12:32;;;;;;;7.50;5.30;;;27.00;50.20;;;;;;5023209;28;20038;-71
2022/08/15 01:15:03;;;;;;;8.20;5.60;;;27.00;50.10;;;;;;5028717;28;20063;-71
2022/08/15 01:17:31;;;;;;;8.55;5.80;;;27.00;50.20;;;;;;5017543;28;20030;-71
2022/08/15 01:20:11;;;;;;;8.32;5.35;;;27.00;50.10;;;;;;5034101;28;20033;-71
2022/08/15 01:23:07;;;;;;;8.30;5.10;;;27.00;50.20;;;;;;5025444;28;20025;-71
2022/08/15 01:25:58;;;;;;;8.05;5.68;;;27.00;50.20;;;;;;5002542;28;20021;-71
2022/08/15 01:28:35;;;;;;;7.63;5.53;;;26.90;50.10;;;;;;5015285;28;20032;-71
2022/08/15 01:31:15;;;;;;;7.43;5.07;;;26.90;50.20;;;;;;5034511;28;20032;-71
2022/08/15 01:33:48;;;;;;;8.32;5.57;;;26.90;50.20;;;;;;5031750;28;20382;-72
2022/08/15 01:36:15;;;;;;;7.93;5.18;;;26.90;50.20;;;;;;5022171;28;20022;-70
2022/08/15 01:38:47;;;;;;;8.60;6.15;;;26.90;50.20;;;;;;5011702;28;20036;-71
2022/08/15 01:41:26;;;;;;;10.15;6.13;;;26.90;50.20;;;;;;5034531;28;20116;-71
2022/08/15 01:44:16;;;;;;;8.07;5.53;;;26.90;50.30;;;;;;5017954;28;20041;-71
2022/08/15 01:46:57;;;;;;;8.82;5.68;;;26.90;50.40;;;;;;4994331;28;20045;-71
2022/08/15 01:49:34;;;;;;;8.07;5.90;;;26.80;50.50;;;;;;5017224;28;20037;-71
2022/08/15 01:52:03;;;;;;;9.13;5.80;;;26.80;50.60;;;;;;5000913;28;20042;-71
2022/08/15 01:54:32;;;;;;;8.20;5.28;;;26.80;50.60;;;;;;5025243;28;20474;-71
2022/08/15 01:56:59;;;;;;;7.57;5.18;;;26.70;50.60;;;;;;5022415;28;20455;-71
2022/08/15 01:59:24;;;;;;;8.23;6.32;;;26.70;50.70;;;;;;5026336;28;20022;-72
2022/08/15 02:01:55;;;;;;;8.60;5.80;;;26.70;50.80;;;;;;5025768;28;20060;-71
2022/08/15 02:04:32;;;;;;;9.00;5.68;;;26.70;50.90;;;;;;5000356;28;20087;-72
2022/08/15 02:07:01;;;;;;;7.55;5.50;;;26.60;50.90;;;;;;5024189;28;20021;-71
2022/08/15 02:09:29;;;;;;;10.13;6.40;;;26.60;51.00;;;;;;5017233;28;20025;-71
2022/08/15 02:11:59;;;;;;;9.20;5.53;;;26.60;51.10;;;;;;5016936;28;20083;-71
2022/08/15 02:14:25;;;;;;;8.18;5.10;;;26.60;51.20;;;;;;5007701;28;20026;-71
2022/08/15 02:16:51;;;;;;;8.05;5.40;;;26.50;51.20;;;;;;5022319;28;20039;-71
2022/08/15 02:19:17;;;;;;;7.25;5.45;;;26.50;51.30;;;;;;5033349;28;20108;-71
2022/08/15 02:21:46;;;;;;;8.25;5.60;;;26.50;51.40;;;;;;5016325;28;20071;-71
2022/08/15 02:24:16;;;;;;;8.80;5.80;;;26.50;51.70;;;;;;5020908;28;20033;-71
2022/08/15 02:26:42;;;;;;;8.25;5.65;;;26.40;51.60;;;;;;5013130;28;20036;-71
2022/08/15 02:29:08;;;;;;;8.13;5.68;;;26.40;51.80;;;;;;5023671;28;20112;-71
2022/08/15 02:31:37;;;;;;;8.07;5.55;;;26.40;51.80;;;;;;5033159;28;20080;-71
2022/08/15 02:34:05;;;;;;;8.63;5.85;;;26.30;51.90;;;;;;5021426;28;20030;-71
2022/08/15 02:36:33;;;;;;;7.95;5.45;;;26.30;52.10;;;;;;4999184;28;20452;-71
2022/08/15 02:39:08;;;;;;;8.00;5.70;;;26.30;52.20;;;;;;5031453;28;20048;-71
2022/08/15 02:41:37;;;;;;;11.27;5.60;;;26.20;52.20;;;;;;5033873;28;20419;-71
2022/08/15 02:44:04;;;;;;;7.78;5.43;;;26.20;52.30;;;;;;5031784;28;20033;-71
2022/08/15 02:46:30;;;;;;;8.85;5.78;;;26.10;52.40;;;;;;5028614;28;20029;-71
2022/08/15 02:49:01;;;;;;;8.90;5.70;;;26.10;52.50;;;;;;5033390;28;20104;-71
2022/08/15 02:51:34;;;;;;;7.93;5.97;;;26.10;52.60;;;;;;5033136;28;20026;-71
2022/08/15 02:54:00;;;;;;;7.82;5.38;;;26.10;52.70;;;;;;5028618;28;20439;-71
2022/08/15 02:56:28;;;;;;;8.18;5.82;;;26.10;52.70;;;;;;5025757;28;20076;-71
2022/08/15 02:58:55;;;;;;;8.40;5.50;;;26.10;52.70;;;;;;5028825;28;20030;-71
2022/08/15 03:01:22;;;;;;;8.95;6.00;;;26.10;52.60;;;;;;5022287;28;20469;-71
2022/08/15 03:03:53;;;;;;;9.55;6.28;;;26.10;52.70;;;;;;5026082;28;20029;-71
2022/08/15 03:06:24;;;;;;;9.30;6.22;;;26.10;52.70;;;;;;5022997;28;20026;-71
2022/08/15 03:08:51;;;;;;;9.00;6.32;;;26.10;52.70;;;;;;5016783;28;20033;-71
2022/08/15 03:11:18;;;;;;;7.88;5.60;;;26.10;52.80;;;;;;5016875;28;20037;-71
2022/08/15 03:13:44;;;;;;;8.65;5.90;;;26.00;52.80;;;;;;5032922;28;20462;-71
2022/08/15 03:16:12;;;;;;;8.85;6.35;;;26.10;52.90;;;;;;5021634;28;20140;-71
2022/08/15 03:18:42;;;;;;;7.65;5.70;;;26.00;53.00;;;;;;5028532;28;20069;-71
2022/08/15 03:21:14;;;;;;;8.52;5.97;;;26.00;53.00;;;;;;5026280;28;20374;-71
2022/08/15 03:23:48;;;;;;;9.20;6.20;;;26.00;53.00;;;;;;5024488;28;20033;-70
2022/08/15 03:26:17;;;;;;;9.23;5.93;;;26.00;53.20;;;;;;5018811;28;20128;-71
2022/08/15 03:28:43;;;;;;;9.60;6.28;;;25.90;53.20;;;;;;5016834;28;20056;-71
2022/08/15 03:31:11;;;;;;;8.73;5.90;;;25.90;53.30;;;;;;5032923;28;20124;-71
2022/08/15 03:33:38;;;;;;;8.45;6.15;;;25.90;53.40;;;;;;5011148;28;20474;-71
2022/08/15 03:36:06;;;;;;;8.45;6.45;;;25.90;53.50;;;;;;5014191;28;20033;-71
2022/08/15 03:38:31;;;;;;;9.27;5.97;;;25.80;53.60;;;;;;5016081;28;20438;-71
2022/08/15 03:40:57;;;;;;;9.40;6.68;;;25.80;53.80;;;;;;5037321;28;20091;-71
2022/08/15 03:43:29;;;;;;;9.10;6.53;;;25.80;53.90;;;;;;5019808;28;20091;-71
2022/08/15 03:45:58;;;;;;;8.93;6.13;;;25.70;54.00;;;;;;5022873;28;20121;-71
2022/08/15 03:48:29;;;;;;;9.20;6.72;;;25.60;54.10;;;;;;5024968;28;20022;-71
2022/08/15 03:50:58;;;;;;;10.17;7.17;;;25.60;54.20;;;;;;5011130;28;20029;-71
2022/08/15 03:53:30;;;;;;;8.23;6.25;;;25.60;54.40;;;;;;5036453;28;20086;-71
2022/08/15 03:55:59;;;;;;;8.30;6.40;;;25.60;54.50;;;;;;5007323;28;20114;-71
2022/08/15 03:58:24;;;;;;;9.38;6.45;;;25.50;54.60;;;;;;4999876;28;20040;-70
2022/08/15 04:00:50;;;;;;;8.80;6.65;;;25.50;54.80;;;;;;5020585;28;20029;-71
2022/08/15 04:03:18;;;;;;;9.30;6.57;;;25.40;54.80;;;;;;5036863;28;20044;-71
2022/08/15 04:05:50;;;;;;;9.25;6.78;;;25.40;54.90;;;;;;5023858;28;20489;-71
2022/08/15 04:08:18;;;;;;;9.52;6.95;;;25.40;55.20;;;;;;5009146;28;20030;-71
2022/08/15 04:10:46;;;;;;;9.52;6.82;;;25.40;55.30;;;;;;5036626;28;20036;-71
2022/08/15 04:13:12;;;;;;;8.98;6.47;;;25.40;55.40;;;;;;5000699;28;20410;-71
2022/08/15 04:15:39;;;;;;;9.35;6.30;;;25.30;55.50;;;;;;5010089;28;20116;-71
2022/08/15 04:18:05;;;;;;;9.23;6.95;;;25.30;55.60;;;;;;4997455;28;20471;-71
2022/08/15 04:20:32;;;;;;;9.00;6.80;;;25.30;55.70;;;;;;4997289;28;20099;-71
2022/08/15 04:23:06;;;;;;;11.10;6.90;;;25.30;55.80;;;;;;5015748;28;20022;-71
2022/08/15 04:25:36;;;;;;;10.38;7.43;;;25.30;55.90;;;;;;5015577;28;20026;-71
2022/08/15 04:28:03;;;;;;;9.85;7.30;;;25.20;55.90;;;;;;5016185;28;20108;-71
2022/08/15 04:30:37;;;;;;;11.35;7.90;;;25.20;56.10;;;;;;5004889;28;20018;-70
2022/08/15 04:33:08;;;;;;;9.63;6.97;;;25.20;56.20;;;;;;5016943;28;20076;-71
2022/08/15 04:35:35;;;;;;;10.07;7.63;;;25.20;56.30;;;;;;5013046;28;20045;-71
2022/08/15 04:38:01;;;;;;;9.90;8.23;;;25.20;56.40;;;;;;5015512;28;20030;-71
2022/08/15 04:40:28;;;;;;;9.27;7.47;;;25.20;56.40;;;;;;5015683;28;20037;-71
2022/08/15 04:43:00;;;;;;;9.57;7.43;;;25.20;56.50;;;;;;5015799;28;20109;-71
2022/08/15 04:45:31;;;;;;;10.00;8.05;;;25.20;56.60;;;;;;5012512;28;20038;-71
2022/08/15 04:48:02;;;;;;;12.23;7.88;;;25.20;56.70;;;;;;4995960;28;20017;-72
2022/08/15 04:50:34;;;;;;;10.98;8.10;;;25.20;56.70;;;;;;5014146;28;20018;-71
2022/08/15 04:53:05;;;;;;;12.25;8.60;;;25.30;56.90;;;;;;5013430;28;20427;-70
2022/08/15 04:55:31;;;;;;;11.00;8.70;;;25.30;56.90;;;;;;5031912;28;20032;-71
2022/08/15 04:57:58;;;;;;;14.60;8.57;;;25.30;56.90;;;;;;5025623;28;20057;-70
2022/08/15 05:00:27;;;;;;;11.52;8.32;;;25.30;56.90;;;;;;5028837;28;20044;-70
2022/08/15 05:03:22;;;;;;;11.45;9.38;;;25.30;56.80;;;;;;5027388;28;20122;-70
2022/08/15 05:05:57;;;;;;;11.18;8.95;;;25.30;56.80;;;;;;5015269;28;20397;-70
2022/08/15 05:08:27;;;;;;;12.18;9.18;;;25.30;56.80;;;;;;5034708;28;20021;-70
2022/08/15 05:11:15;;;;;;;13.07;9.90;;;25.30;56.80;;;;;;5035091;28;20087;-70
2022/08/15 05:13:43;;;;;;;12.55;9.73;;;25.30;56.90;;;;;;5034664;28;20052;-70
2022/08/15 05:16:15;;;;;;;13.80;10.80;;;25.30;56.90;;;;;;5034802;28;20083;-70
2022/08/15 05:18:44;;;;;;;13.68;11.05;;;25.30;57.00;;;;;;5011123;28;20034;-70
2022/08/15 05:21:11;;;;;;;13.68;11.18;;;25.30;57.00;;;;;;5005488;28;20407;-70
2022/08/15 05:23:39;;;;;;;14.20;10.98;;;25.30;57.00;;;;;;5034734;28;20075;-69
2022/08/15 05:26:07;;;;;;;16.45;11.38;;;25.40;57.10;;;;;;5006880;28;20426;-70
2022/08/15 05:28:36;;;;;;;13.35;10.43;;;25.40;57.20;;;;;;5025441;28;20022;-70
2022/08/15 05:31:07;;;;;;;14.07;11.10;;;25.40;57.10;;;;;;5021455;28;20371;-70
2022/08/15 05:33:34;;;;;;;13.80;10.95;;;25.40;57.20;;;;;;5033455;28;20036;-70
2022/08/15 05:36:03;;;;;;;15.48;11.40;;;25.40;57.50;;;;;;5012422;28;20029;-70
2022/08/15 05:38:37;;;;;;;12.70;10.93;;;25.40;57.80;;;;;;5028677;28;20371;-71
2022/08/15 05:41:23;;;;;;;14.73;11.38;;;25.40;57.80;;;;;;5020015;28;20030;-70
2022/08/15 05:44:24;;;;;;;12.52;10.63;;;25.30;57.70;;;;;;5018206;28;20427;-71
2022/08/15 05:47:21;;;;;;;14.43;10.25;;;25.30;57.60;;;;;;5033685;28;20037;-71
2022/08/15 05:50:00;;;;;;;10.38;9.00;;;25.30;57.50;;;;;;5020797;28;20038;-70
2022/08/15 05:52:38;;;;;;;11.88;9.50;;;25.20;57.10;;;;;;5014955;28;20030;-69
2022/08/15 05:55:35;;;;;;;13.65;8.70;;;25.30;56.90;;;;;;5023047;28;20025;-70
2022/08/15 05:58:24;;;;;;;12.48;8.18;;;25.30;56.60;;;;;;5009144;28;20458;-69
2022/08/15 06:01:04;;;;;;;12.48;7.53;;;25.20;56.40;;;;;;4991122;28;20351;-70
2022/08/15 06:03:34;;;;;;;10.40;6.50;;;25.20;56.40;;;;;;5006819;28;20034;-70
2022/08/15 06:06:06;;;;;;;9.38;6.97;;;25.20;56.90;;;;;;5029530;28;20029;-70
2022/08/15 06:08:36;;;;;;;10.70;6.80;;;25.20;56.00;;;;;;4993668;28;20100;-70
2022/08/15 06:11:17;;;;;;;11.30;6.75;;;25.30;55.80;;;;;;5020554;28;20021;-70
2022/08/15 06:13:55;;;;;;;12.48;6.60;;;25.50;55.40;;;;;;5033514;28;20109;-70
2022/08/15 06:16:32;;;;;;;9.35;5.63;;;25.80;54.90;;;;;;5017697;28;20449;-70
2022/08/15 06:19:05;;;;;;;9.80;5.75;;;26.00;54.40;;;;;;5002578;28;20021;-70
2022/08/15 06:21:40;;;;;;;14.23;5.90;;;26.10;54.20;;;;;;5011099;28;20025;-70
2022/08/15 06:24:20;;;;;;;8.20;5.18;;;26.10;54.10;;;;;;5034997;28;20434;-70
2022/08/15 06:26:52;;;;;;;9.52;5.22;;;26.10;54.00;;;;;;5008636;28;20083;-70
2022/08/15 06:29:30;;;;;;;8.15;5.00;;;26.10;54.00;;;;;;5027099;28;20100;-70
2022/08/15 06:32:25;;;;;;;7.38;4.25;;;26.10;53.70;;;;;;5033496;28;20437;-70
2022/08/15 06:35:14;;;;;;;7.40;4.60;;;26.20;53.60;;;;;;5004614;28;20029;-70
2022/08/15 06:37:51;;;;;;;7.80;4.22;;;26.20;53.30;;;;;;5017111;28;20120;-70
2022/08/15 06:40:31;;;;;;;7.38;3.90;;;26.30;53.10;;;;;;5017098;28;20116;-70
2022/08/15 06:42:59;;;;;;;6.97;3.67;;;26.40;52.80;;;;;;5033505;28;20100;-70
2022/08/15 06:45:47;;;;;;;8.93;3.95;;;26.40;52.60;;;;;;5034485;28;20434;-70
2022/08/15 06:48:20;;;;;;;6.40;3.45;;;26.40;52.60;;;;;;5033259;28;20031;-70
2022/08/15 06:50:50;;;;;;;6.07;3.25;;;26.50;52.40;;;;;;5007271;28;20028;-71
2022/08/15 06:53:32;;;;;;;6.82;3.38;;;26.50;52.00;;;;;;5032970;28;20445;-71
2022/08/15 06:56:09;;;;;;;7.25;3.17;;;26.60;51.70;;;;;;5000185;28;20026;-71
2022/08/15 06:58:58;;;;;;;6.55;3.22;;;26.60;51.50;;;;;;5012575;28;20026;-70
2022/08/15 07:01:37;;;;;;;7.60;3.30;;;26.50;51.40;;;;;;5013069;28;20370;-71
2022/08/15 07:04:31;;;;;;;5.72;3.13;;;26.50;51.40;;;;;;5021471;28;20030;-71
2022/08/15 07:07:32;;;;;;;6.55;3.40;;;26.50;51.20;;;;;;5015588;28;20129;-75
2022/08/15 07:10:19;;;;;;;7.43;3.50;;;26.40;51.10;;;;;;4996274;28;20045;-73
2022/08/15 07:13:04;;;;;;;8.70;3.40;;;26.30;51.10;;;;;;5011693;28;20092;-73
2022/08/15 07:15:48;;;;;;;8.07;3.20;;;26.30;51.10;;;;;;5012006;28;20124;-73
2022/08/15 07:18:27;;;;;;;7.28;3.30;;;26.30;51.20;;;;;;5012771;28;20033;-73
2022/08/15 07:21:02;;;;;;;10.90;3.13;;;26.30;51.30;;;;;;5015776;28;20030;-73
2022/08/15 07:23:30;;;;;;;7.22;3.40;;;26.30;51.40;;;;;;5015619;28;20109;-73
2022/08/15 07:26:15;;;;;;;8.77;3.90;;;26.20;51.40;;;;;;5015253;28;20018;-73
2022/08/15 07:28:43;;;;;;;10.30;3.20;;;26.20;51.50;;;;;;5016541;28;20065;-73
2022/08/15 07:31:14;;;;;;;8.13;3.33;;;26.20;51.80;;;;;;4999159;28;20125;-73
2022/08/15 07:33:51;;;;;;;6.63;3.30;;;26.20;51.90;;;;;;5014882;28;20109;-73
2022/08/15 07:36:24;;;;;;;6.45;2.78;;;26.20;51.70;;;;;;5012752;28;20030;-73
2022/08/15 07:38:52;;;;;;;7.80;3.22;;;26.20;51.70;;;;;;5000221;28;20328;-72
2022/08/15 07:41:35;;;;;;;8.38;3.33;;;26.20;51.60;;;;;;5000181;28;20060;-72
2022/08/15 07:44:31;;;;;;;5.65;2.78;;;26.20;51.40;;;;;;5000586;28;20435;-72
2022/08/15 07:47:02;;;;;;;5.32;2.72;;;26.30;51.40;;;;;;5015617;28;20030;-73
2022/08/15 07:49:34;;;;;;;7.05;3.00;;;26.30;51.40;;;;;;5015133;28;20025;-72
2022/08/15 07:52:21;;;;;;;7.57;3.20;;;26.30;51.50;;;;;;5016100;28;20053;-72
2022/08/15 07:54:57;;;;;;;7.82;3.13;;;26.40;51.40;;;;;;5025177;28;20079;-72
2022/08/15 07:57:37;;;;;;;6.50;2.90;;;26.40;51.30;;;;;;5033347;28;20438;-73
2022/08/15 08:00:17;;;;;;;5.65;3.10;;;26.50;51.40;;;;;;5001752;28;20113;-72
2022/08/15 08:03:00;;;;;;;7.03;2.88;;;26.60;51.00;;;;;;5035897;28;20101;-72
2022/08/15 08:05:31;;;;;;;6.32;3.00;;;26.60;50.90;;;;;;5019119;28;20047;-72
2022/08/15 08:08:01;;;;;;;6.78;3.00;;;26.70;50.90;;;;;;5029961;28;20397;-72
2022/08/15 08:10:40;;;;;;;7.75;3.60;;;26.80;50.80;;;;;;5019890;28;20488;-73
2022/08/15 08:13:28;;;;;;;7.40;3.45;;;26.80;50.50;;;;;;5003321;28;20037;-72
2022/08/15 08:16:07;;;;;;;8.25;3.58;;;26.80;50.20;;;;;;5031119;28;20465;-72
2022/08/15 08:18:47;;;;;;;8.77;3.40;;;26.90;50.70;;;;;;5016022;28;20331;-74
2022/08/15 08:21:17;;;;;;;7.53;3.65;;;26.90;50.00;;;;;;5014776;28;20025;-72
2022/08/15 08:23:59;;;;;;;6.45;3.00;;;26.80;50.00;;;;;;5011863;28;20034;-72
2022/08/15 08:26:50;;;;;;;7.13;3.20;;;26.90;50.10;;;;;;5047383;28;20021;-72
2022/08/15 08:29:34;;;;;;;;;;;26.90;50.40;;;;;;5015351;28;20522;-71
2022/08/15 08:32:21;;;;;;;7.00;3.30;;;26.90;50.40;;;;;;5024352;28;20018;-72
2022/08/15 08:35:04;;;;;;;6.90;2.83;;;26.80;50.40;;;;;;5017906;28;20030;-72
2022/08/15 08:37:39;;;;;;;6.70;3.55;;;26.80;50.20;;;;;;5036226;28;20029;-72
2022/08/15 08:43:04;;;;;;;6.60;3.03;;;26.80;50.30;;;;;;5033780;28;20025;-71
2022/08/15 08:46:00;;;;;;;8.60;3.25;;;26.90;50.30;;;;;;5017686;28;20029;-72
2022/08/15 08:48:38;;;;;;;7.03;3.70;;;26.90;50.10;;;;;;5027959;28;20018;-72
2022/08/15 08:51:03;;;;;;;7.20;3.28;;;26.90;50.10;;;;;;5008928;28;20117;-72
2022/08/15 08:53:42;;;;;;;6.85;3.60;;;27.00;50.10;;;;;;5020189;28;20105;-72
2022/08/15 08:56:14;;;;;;;7.15;3.53;;;27.10;49.90;;;;;;5036802;28;20037;-72
2022/08/15 08:58:51;;;;;;;6.10;3.60;;;27.10;49.60;;;;;;5025977;28;20402;-72
2022/08/15 09:01:23;;;;;;;8.32;3.78;;;27.30;49.50;;;;;;5030257;28;20038;-71
2022/08/15 09:03:56;;;;;;;7.85;3.92;;;27.60;49.10;;;;;;5010121;28;20038;-71
2022/08/15 09:06:26;;;;;;;8.60;3.78;;;27.70;48.90;;;;;;5007717;28;20053;-73
2022/08/15 09:09:10;;;;;;;7.75;3.90;;;27.90;48.80;;;;;;5029283;28;20065;-72
2022/08/15 09:11:41;;;;;;;9.00;4.32;;;27.90;48.70;;;;;;5029317;28;20029;-73
2022/08/15 09:14:26;;;;;;;8.95;4.68;;;27.90;48.70;;;;;;5036000;28;20087;-71
2022/08/15 09:16:58;;;;;;;8.95;4.22;;;27.90;48.60;;;;;;5035545;28;20069;-72
2022/08/15 09:19:34;;;;;;;12.80;4.43;;;27.90;48.80;;;;;;5034930;28;20091;-72
2022/08/15 09:22:00;;;;;;;8.23;4.78;;;27.90;48.90;;;;;;5036008;28;20346;-72
2022/08/15 09:24:25;;;;;;;8.88;5.15;;;27.80;49.00;;;;;;5030661;28;20104;-72
2022/08/15 09:27:19;;;;;;;9.15;4.53;;;27.80;49.20;;;;;;5023377;28;20124;-72
2022/08/15 09:29:50;;;;;;;8.93;4.75;;;27.70;49.50;;;;;;5034443;28;20029;-72
2022/08/15 09:32:28;;;;;;;10.15;5.20;;;27.60;49.70;;;;;;5034340;28;20043;-72
2022/08/15 09:35:07;;;;;;;11.70;4.70;;;27.50;49.70;;;;;;5017518;28;20152;-72
2022/08/15 09:38:07;;;;;;;8.00;4.75;;;27.50;49.90;;;;;;5031579;28;20087;-72
2022/08/15 09:41:00;;;;;;;11.48;4.47;;;27.40;50.00;;;;;;5013384;28;20080;-73
2022/08/15 09:43:48;;;;;;;8.32;4.85;;;27.30;50.10;;;;;;5035542;28;20040;-72
2022/08/15 09:46:45;;;;;;;7.28;4.13;;;27.30;50.10;;;;;;5034235;28;20447;-72
2022/08/15 09:49:34;;;;;;;6.85;4.38;;;27.20;50.20;;;;;;4988997;28;20088;-72
2022/08/15 09:52:17;;;;;;;8.45;4.70;;;27.20;50.50;;;;;;5013560;28;20041;-72
2022/08/15 09:54:48;;;;;;;6.72;4.00;;;27.10;50.70;;;;;;5030088;28;20104;-72
2022/08/15 09:57:36;;;;;;;8.88;4.00;;;27.10;51.10;;;;;;4994652;28;20030;-72
2022/08/15 10:00:24;;;;;;;7.35;3.45;;;27.10;51.10;;;;;;5031766;28;20437;-71
2022/08/15 10:02:51;;;;;;;9.63;3.80;;;27.10;51.10;;;;;;5012105;28;20027;-72
2022/08/15 10:05:29;;;;;;;11.77;3.95;;;27.10;51.20;;;;;;5013326;28;20088;-72
2022/08/15 10:08:01;;;;;;;8.32;4.90;;;27.10;51.80;;;;;;5020393;28;20172;-71
2022/08/15 10:10:36;;;;;;;8.40;4.53;;;27.10;51.20;;;;;;5023854;28;20032;-72
2022/08/15 10:13:07;;;;;;;12.43;4.93;;;27.10;51.20;;;;;;5011944;28;20088;-72
2022/08/15 10:15:43;;;;;;;7.43;4.10;;;27.10;51.20;;;;;;5000869;28;20067;-72
2022/08/15 10:18:22;;;;;;;8.32;4.47;;;27.10;51.50;;;;;;4993642;28;20041;-74
2022/08/15 10:21:30;;;;;;;9.73;4.90;;;27.10;51.70;;;;;;5008933;28;20510;-75
2022/08/15 10:23:56;;;;;;;10.93;4.40;;;27.10;51.80;;;;;;5006227;28;20455;-74
2022/08/15 10:26:24;;;;;;;11.00;4.53;;;27.00;51.90;;;;;;5006636;28;20045;-74
2022/08/15 10:29:01;;;;;;;9.00;5.22;;;27.10;52.20;;;;;;4998869;28;20080;-75
2022/08/15 10:31:36;;;;;;;9.85;5.00;;;27.10;52.30;;;;;;5024279;28;20113;-73
2022/08/15 10:34:03;;;;;;;8.95;5.18;;;27.00;52.20;;;;;;5013323;28;20036;-74
2022/08/15 10:36:35;;;;;;;9.75;5.35;;;27.00;52.30;;;;;;5013365;28;20030;-73
2022/08/15 10:39:38;;;;;;;12.13;5.20;;;27.10;52.80;;;;;;5013384;28;20033;-73
2022/08/15 10:42:42;;;;;;;7.90;5.13;;;27.00;53.20;;;;;;5013959;28;20080;-71
2022/08/15 10:45:43;;;;;;;12.07;6.32;;;27.10;53.40;;;;;;5018785;28;20033;-71
2022/08/15 10:48:46;;;;;;;13.02;6.28;;;27.10;53.30;;;;;;5015066;28;20060;-71
2022/08/15 10:51:48;;;;;;;10.23;5.60;;;27.20;53.30;;;;;;5012269;28;20376;-71
2022/08/15 10:54:48;;;;;;;12.32;6.60;;;27.30;53.30;;;;;;5008929;28;20025;-71
2022/08/15 10:57:17;;;;;;;9.05;6.63;;;27.50;53.10;;;;;;5029979;28;20057;-71
2022/08/15 10:59:48;;;;;;;11.07;6.38;;;27.60;53.00;;;;;;5023992;28;20129;-71
2022/08/15 11:02:38;;;;;;;10.07;6.32;;;27.70;53.00;;;;;;5016638;28;20038;-71
2022/08/15 11:05:09;;;;;;;10.70;6.50;;;27.90;52.90;;;;;;5017428;28;20335;-71
2022/08/15 11:07:36;;;;;;;;;;;27.90;52.60;;;;;;5017230;28;20099;-71
2022/08/15 11:10:09;;;;;;;9.65;6.00;;;28.00;52.50;;;;;;5023474;28;20005;-70
2022/08/15 11:12:40;;;;;;;11.20;6.32;;;28.10;52.50;;;;;;5021220;28;20049;-70
2022/08/15 11:15:14;;;;;;;;;;;28.10;52.40;;;;;;5019464;28;20038;-71
2022/08/15 11:17:45;;;;;;;10.30;6.20;;;28.20;52.30;;;;;;5030160;28;19917;-70
2022/08/15 11:20:17;;;;;;;9.18;6.32;;;28.20;52.40;;;;;;5034151;28;20053;-71
2022/08/15 11:22:53;;;;;;;10.88;6.60;;;28.20;52.40;;;;;;5021211;28;20025;-70
2022/08/15 11:25:24;;;;;;;9.45;6.32;;;28.20;52.50;;;;;;5015902;28;20017;-70
2022/08/15 11:28:00;;;;;;;9.13;5.70;;;28.30;52.60;;;;;;5029690;28;20494;-70
2022/08/15 11:30:27;;;;;;;9.77;6.35;;;28.20;52.50;;;;;;5033145;28;20332;-70
2022/08/15 11:32:53;;;;;;;9.32;5.88;;;28.20;52.70;;;;;;5006053;28;20406;-71
2022/08/15 11:35:30;;;;;;;9.80;6.45;;;28.10;52.80;;;;;;5027790;28;20018;-64
2022/08/15 11:37:59;;;;;;;10.35;6.18;;;28.20;53.00;;;;;;4986250;28;20125;-63
2022/08/15 11:40:30;;;;;;;11.25;6.88;;;28.10;53.10;;;;;;5027257;28;20053;-63
2022/08/15 11:42:58;;;;;;;10.55;6.32;;;28.00;53.40;;;;;;5026455;28;20036;-63
2022/08/15 11:45:28;;;;;;;12.50;6.78;;;27.90;53.40;;;;;;5027453;28;20026;-63
2022/08/15 11:47:56;;;;;;;10.65;6.32;;;27.90;53.60;;;;;;5005419;28;20030;-64
2022/08/15 11:50:37;;;;;;;11.43;6.28;;;27.80;53.70;;;;;;5032886;28;20037;-63
2022/08/15 11:53:08;;;;;;;10.68;6.68;;;27.80;53.80;;;;;;5024565;28;20084;-63
2022/08/15 11:55:39;;;;;;;9.85;6.82;;;27.80;53.90;;;;;;5018785;28;20026;-63
2022/08/15 11:58:13;;;;;;;14.65;6.70;;;27.80;53.90;;;;;;5008788;28;20450;-63
2022/08/15 12:00:44;;;;;;;10.30;6.75;;;27.80;54.10;;;;;;5019651;28;20042;-63
2022/08/15 12:03:37;;;;;;;10.43;6.65;;;27.80;54.10;;;;;;5005163;28;20069;-63
2022/08/15 12:06:25;;;;;;;12.15;7.72;;;27.90;54.20;;;;;;5024073;28;20070;-63
2022/08/15 12:08:51;;;;;;;10.52;6.88;;;28.00;54.00;;;;;;5014267;28;20423;-63
2022/08/15 12:11:24;;;;;;;9.75;6.50;;;27.90;53.80;;;;;;5032470;28;20025;-63
2022/08/15 12:14:02;;;;;;;9.60;6.75;;;28.00;54.10;;;;;;5022145;28;20053;-63
2022/08/15 12:16:43;;;;;;;10.63;6.00;;;28.00;53.90;;;;;;5026664;28;20026;-62
2022/08/15 12:19:29;;;;;;;11.93;6.80;;;28.00;53.80;;;;;;5017960;28;20095;-63
2022/08/15 12:22:02;;;;;;;10.88;6.78;;;28.00;53.80;;;;;;5009585;28;20099;-63
2022/08/15 12:24:32;;;;;;;11.50;7.03;;;28.00;53.80;;;;;;5000916;28;20443;-63
2022/08/15 12:27:01;;;;;;;10.05;6.97;;;27.90;53.80;;;;;;5028235;28;20112;-63
2022/08/15 12:29:28;;;;;;;11.75;7.22;;;27.90;53.90;;;;;;4998039;28;20034;-67
2022/08/15 12:31:56;;;;;;;10.57;6.78;;;27.80;54.00;;;;;;5015582;28;20033;-69
2022/08/15 12:34:37;;;;;;;10.00;6.95;;;27.70;54.10;;;;;;5008597;28;20029;-69
2022/08/15 12:37:15;;;;;;;12.93;7.57;;;27.70;54.20;;;;;;5008939;28;20026;-69
2022/08/15 12:39:44;;;;;;;11.07;6.95;;;27.70;54.10;;;;;;5010544;28;20032;-67
2022/08/15 12:42:14;;;;;;;10.27;7.47;;;27.70;54.20;;;;;;5011054;28;20036;-72
2022/08/15 12:44:42;;;;;;;10.00;6.25;;;27.80;54.20;;;;;;5015327;28;20040;-75
2022/08/15 12:47:08;;;;;;;8.40;6.28;;;27.80;54.20;;;;;;5013391;28;20358;-66
2022/08/15 12:49:34;;;;;;;10.02;6.80;;;27.80;54.30;;;;;;5015406;28;20038;-65
2022/08/15 12:52:00;;;;;;;10.63;6.40;;;27.80;54.20;;;;;;5012959;28;20092;-65
2022/08/15 12:54:25;;;;;;;10.52;7.13;;;27.80;54.10;;;;;;5015926;28;20033;-64
2022/08/15 12:56:51;;;;;;;9.65;6.65;;;27.80;54.10;;;;;;5008630;28;20022;-71
2022/08/15 12:59:17;;;;;;;9.70;6.13;;;27.80;54.10;;;;;;5011336;28;20394;-72
2022/08/15 13:01:45;;;;;;;9.93;7.05;;;27.80;54.20;;;;;;5014253;28;20045;-72
2022/08/15 13:04:14;;;;;;;11.10;6.40;;;27.80;54.10;;;;;;5014285;28;20038;-72
2022/08/15 13:06:52;;;;;;;8.88;6.53;;;27.80;54.20;;;;;;5006054;28;20387;-72
2022/08/15 13:09:20;;;;;;;10.57;6.10;;;27.90;54.00;;;;;;5010075;28;20033;-73
2022/08/15 13:11:47;;;;;;;11.98;6.80;;;27.90;54.00;;;;;;5009046;28;20414;-72
2022/08/15 13:14:15;;;;;;;9.43;6.35;;;27.90;54.10;;;;;;5011737;28;20344;-72
2022/08/15 13:16:45;;;;;;;10.05;6.28;;;27.90;54.00;;;;;;5012521;28;20449;-73
2022/08/15 13:19:15;;;;;;;9.95;6.40;;;28.00;54.00;;;;;;5010804;28;20042;-72
2022/08/15 13:24:26;;;;;;;9.80;5.97;;;27.90;54.00;;;;;;5012688;28;20548;-72
2022/08/15 13:26:51;;;;;;;11.02;7.00;;;27.90;54.10;;;;;;5017661;28;20422;-72